Time;durP1;ratioP1;P1;durP2;ratioP2;P2;SDS_P1;SDS_P2;PMS_P1;PMS_P2;Temp;Humidity;BMP_temperature;BMP_pressure;BME280_temperature;BME280_humidity;BME280_pressure;Samples;Min_cycle;Max_cycle;Signal;HPM_P1;HPM_P2
2022/08/22 00:00:14;;;;;;;;;;;;;;;17.70;49.39;96741.06;30001;983;1881;-56
2022/08/22 00:00:59;;;;;;;;;;;;;;;17.69;49.40;96747.69;30001;982;1855;-67
2022/08/22 00:01:39;;;;;;;;;;;;;;;17.68;49.64;96743.34;30001;982;1877;-66
2022/08/22 00:02:19;;;;;;;;;;;;;;;17.68;49.48;96746.09;30001;982;1855;-67
2022/08/22 00:03:04;;;;;;;;;;;;;;;17.66;49.65;96745.66;30001;983;1876;-67
2022/08/22 00:04:00;;;;;;;;;;;;;;;17.66;49.80;96742.91;30001;983;1876;-67
2022/08/22 00:04:51;;;;;;;;;;;;;;;17.64;49.93;96739.69;30001;983;1854;-67
2022/08/22 00:05:35;;;;;;;;;;;;;;;17.63;50.30;96749.84;30001;983;1868;-68
2022/08/22 00:06:44;;;;;;;;;;;;;;;17.61;50.02;96737.63;30001;983;1881;-67
2022/08/22 00:07:44;;;;;;;;;;;;;;;17.59;50.62;96745.38;30001;983;1872;-67
2022/08/22 00:08:20;;;;;;;;;;;;;;;17.59;50.67;96748.94;30001;982;1855;-67
2022/08/22 00:08:57;;;;;;;;;;;;;;;17.58;50.60;96746.53;30001;982;1850;-66
2022/08/22 00:09:54;;;;;;;;;;;;;;;17.56;50.75;96746.06;30001;982;1859;-66
2022/08/22 00:10:54;;;;;;;;;;;;;;;17.55;50.91;96752.69;30001;983;1867;-69
2022/08/22 00:11:46;;;;;;;;;;;;;;;17.52;50.76;96747.88;30001;983;1876;-66
2022/08/22 00:12:43;;;;;;;;;;;;;;;17.53;51.01;96749.47;30001;983;1876;-67
2022/08/22 00:13:33;;;;;;;;;;;;;;;17.52;51.00;96753.37;30001;983;1876;-67
2022/08/22 00:14:27;;;;;;;;;;;;;;;17.51;51.16;96751.78;30001;983;1872;-65
2022/08/22 00:15:09;;;;;;;;;;;;;;;17.51;51.18;96751.78;30001;983;1855;-67
2022/08/22 00:15:43;;;;;;;;;;;;;;;17.52;51.60;96753.37;30001;982;1872;-65
2022/08/22 00:16:28;;;;;;;;;;;;;;;17.50;51.76;96744.69;30001;982;1881;-67
2022/08/22 00:17:21;;;;;;;;;;;;;;;17.53;51.84;96755.78;30001;982;1877;-67
2022/08/22 00:17:57;;;;;;;;;;;;;;;17.56;51.87;96762.53;30001;983;1859;-68
2022/08/22 00:18:46;;;;;;;;;;;;;;;17.56;52.01;96765.25;30001;983;1872;-66
2022/08/22 00:19:30;;;;;;;;;;;;;;;17.57;52.15;96755.91;30001;983;1881;-67
2022/08/22 00:20:09;;;;;;;;;;;;;;;17.56;51.99;96754.28;30001;983;1876;-68
2022/08/22 00:20:44;;;;;;;;;;;;;;;17.56;52.55;96759.78;30001;983;1881;-66
2022/08/22 00:21:38;;;;;;;;;;;;;;;17.56;52.53;96765.25;30001;983;1877;-66
2022/08/22 00:22:20;;;;;;;;;;;;;;;17.55;52.70;96758.19;30001;982;1877;-65
2022/08/22 00:22:57;;;;;;;;;;;;;;;17.56;52.75;96757.03;30001;982;1855;-68
2022/08/22 00:23:39;;;;;;;;;;;;;;;17.56;52.76;96759.78;30001;982;1877;-67
2022/08/22 00:24:22;;;;;;;;;;;;;;;17.58;52.64;96754.75;30001;982;1877;-67
2022/08/22 00:25:01;;;;;;;;;;;;;;;17.59;52.50;96759.09;30001;982;1859;-67
2022/08/22 00:25:41;;;;;;;;;;;;;;;17.60;51.89;96749.72;30001;983;1872;-67
2022/08/22 00:26:32;;;;;;;;;;;;;;;17.59;52.11;96753.63;30001;983;1881;-65
2022/08/22 00:27:09;;;;;;;;;;;;;;;17.61;51.82;96745.84;30001;983;1868;-67
2022/08/22 00:27:47;;;;;;;;;;;;;;;17.63;51.28;96744.38;30001;983;1881;-67
2022/08/22 00:28:30;;;;;;;;;;;;;;;17.66;51.20;96749.19;30001;983;1876;-67
2022/08/22 00:29:03;;;;;;;;;;;;;;;17.69;50.62;96742.19;30001;983;1859;-67
2022/08/22 00:29:43;;;;;;;;;;;;;;;17.70;50.43;96733.63;30001;982;1872;-66
2022/08/22 00:30:15;;;;;;;;;;;;;;;17.73;50.56;96748.59;30001;982;1859;-66
2022/08/22 00:30:50;;;;;;;;;;;;;;;17.73;50.41;96738.44;30001;982;1872;-65
2022/08/22 00:31:32;;;;;;;;;;;;;;;17.75;50.22;96740.84;30001;982;1881;-66
2022/08/22 00:32:32;;;;;;;;;;;;;;;17.78;49.94;96733.88;30001;982;1877;-67
2022/08/22 00:33:09;;;;;;;;;;;;;;;17.79;49.82;96736.25;30001;983;1876;-67
2022/08/22 00:33:44;;;;;;;;;;;;;;;17.80;49.92;96732.38;30001;983;1876;-67
2022/08/22 00:34:21;;;;;;;;;;;;;;;17.80;49.78;96732.38;30001;983;1880;-67
2022/08/22 00:35:00;;;;;;;;;;;;;;;17.80;50.07;96732.38;30001;983;1854;-67
2022/08/22 00:35:40;;;;;;;;;;;;;;;17.80;50.51;96737.88;30001;986;1876;-65
2022/08/22 00:36:15;;;;;;;;;;;;;;;17.82;50.39;96735.59;30001;983;1877;-66
2022/08/22 00:37:01;;;;;;;;;;;;;;;17.82;50.45;96740.28;30001;983;1859;-66
2022/08/22 00:37:36;;;;;;;;;;;;;;;17.84;50.14;96738.78;30001;982;1872;-67
2022/08/22 00:38:29;;;;;;;;;;;;;;;17.84;50.46;96733.28;30001;982;1881;-67
2022/08/22 00:39:38;;;;;;;;;;;;;;;17.86;50.09;96736.50;30001;982;1872;-67
2022/08/22 00:40:32;;;;;;;;;;;;;;;17.87;50.16;96737.31;30001;982;1877;-69
2022/08/22 00:41:09;;;;;;;;;;;;;;;17.85;51.01;96739.59;30001;983;1850;-67
2022/08/22 00:41:59;;;;;;;;;;;;;;;17.83;51.23;96742.66;30001;983;1876;-68
2022/08/22 00:42:49;;;;;;;;;;;;;;;17.81;51.34;96744.16;30001;983;1872;-67
2022/08/22 00:43:44;;;;;;;;;;;;;;;17.79;51.55;96738.22;30001;983;1881;-68
2022/08/22 00:44:44;;;;;;;;;;;;;;;17.77;51.98;96740.50;30001;983;1876;-67
2022/08/22 00:45:30;;;;;;;;;;;;;;;17.75;51.66;96738.09;30001;982;1855;-67
2022/08/22 00:46:07;;;;;;;;;;;;;;;17.73;51.95;96737.63;30001;982;1872;-67
2022/08/22 00:47:12;;;;;;;;;;;;;;;17.72;52.01;96733.28;30001;982;1859;-66
2022/08/22 00:47:50;;;;;;;;;;;;;;;17.70;51.85;96733.63;30001;982;1868;-67
2022/08/22 00:48:41;;;;;;;;;;;;;;;17.70;51.99;96732.81;30001;983;1880;-66
2022/08/22 00:49:43;;;;;;;;;;;;;;;17.71;52.17;96740.72;30001;983;1872;-67
2022/08/22 00:50:29;;;;;;;;;;;;;;;17.70;51.87;96728.12;30001;983;1876;-65
2022/08/22 00:51:21;;;;;;;;;;;;;;;17.71;52.03;96735.22;30001;983;1876;-66
2022/08/22 00:52:01;;;;;;;;;;;;;;;17.71;52.14;96735.22;30001;983;1855;-66
2022/08/22 00:52:51;;;;;;;;;;;;;;;17.71;51.77;96734.44;30001;982;1872;-68
2022/08/22 00:53:41;;;;;;;;;;;;;;;17.72;51.75;96730.53;30001;982;1877;-65
2022/08/22 00:54:31;;;;;;;;;;;;;;;17.73;51.76;96732.13;30001;982;1832;-69
2022/08/22 00:55:40;;;;;;;;;;;;;;;17.73;51.62;96732.94;30001;983;1876;-67
2022/08/22 00:56:19;;;;;;;;;;;;;;;17.73;51.47;96732.13;30001;983;1872;-66
2022/08/22 00:57:21;;;;;;;;;;;;;;;17.72;51.62;96728.59;30001;983;1880;-67
2022/08/22 00:58:10;;;;;;;;;;;;;;;17.70;51.70;96725.41;30001;983;1850;-66
2022/08/22 00:59:13;;;;;;;;;;;;;;;17.69;51.97;96736.72;30001;983;1868;-65
2022/08/22 01:00:12;;;;;;;;;;;;;;;17.68;51.85;96726.88;30001;982;1872;-56
2022/08/22 01:00:51;;;;;;;;;;;;;;;17.68;51.92;96724.13;30001;982;1872;-67
2022/08/22 01:01:48;;;;;;;;;;;;;;;17.67;51.91;96728.06;30001;982;1877;-67
2022/08/22 01:02:30;;;;;;;;;;;;;;;17.66;52.11;96726.44;30001;983;1876;-67
2022/08/22 01:03:21;;;;;;;;;;;;;;;17.66;52.22;96732.75;30001;983;1854;-63
2022/08/22 01:03:59;;;;;;;;;;;;;;;17.68;52.51;96724.13;30001;983;1876;-65
2022/08/22 01:04:43;;;;;;;;;;;;;;;17.68;52.54;96727.69;30001;983;1876;-64
2022/08/22 01:05:32;;;;;;;;;;;;;;;17.67;52.72;96728.06;30001;983;1880;-66
2022/08/22 01:06:21;;;;;;;;;;;;;;;17.65;52.48;96725.66;30001;983;1868;-65
2022/08/22 01:07:02;;;;;;;;;;;;;;;17.65;52.48;96728.38;30001;983;1881;-66
2022/08/22 01:07:51;;;;;;;;;;;;;;;17.67;52.53;96734.31;30001;982;1855;-66
2022/08/22 01:08:40;;;;;;;;;;;;;;;17.68;52.66;96724.94;30001;982;1868;-67
2022/08/22 01:09:30;;;;;;;;;;;;;;;17.70;52.38;96727.34;30001;982;1851;-66
2022/08/22 01:10:29;;;;;;;;;;;;;;;17.70;52.37;96716.37;30001;983;1867;-65
2022/08/22 01:11:10;;;;;;;;;;;;;;;17.69;52.14;96720.25;30001;983;1850;-66
2022/08/22 01:11:49;;;;;;;;;;;;;;;17.68;52.29;96715.91;30001;983;1876;-67
2022/08/22 01:12:43;;;;;;;;;;;;;;;17.67;52.39;96725.31;30001;983;1876;-68
2022/08/22 01:13:35;;;;;;;;;;;;;;;17.65;52.25;96719.34;30001;983;1876;-66
2022/08/22 01:14:25;;;;;;;;;;;;;;;17.64;52.33;96723.22;30001;983;1877;-67
2022/08/22 01:15:02;;;;;;;;;;;;;;;17.61;52.72;96723.91;30001;968;1906;-67
2022/08/22 01:15:36;;;;;;;;;;;;;;;17.61;52.21;96726.63;30001;982;1877;-67
2022/08/22 01:16:29;;;;;;;;;;;;;;;17.59;52.62;96723.44;30001;982;1859;-67
2022/08/22 01:17:30;;;;;;;;;;;;;;;17.58;52.35;96719.09;30001;959;1891;-67
2022/08/22 01:18:11;;;;;;;;;;;;;;;17.54;53.21;96724.47;30001;983;1880;-68
2022/08/22 01:18:55;;;;;;;;;;;;;;;17.51;53.11;96725.13;30001;983;1876;-66
2022/08/22 01:19:44;;;;;;;;;;;;;;;17.48;53.14;96723.06;30001;983;1881;-67
2022/08/22 01:20:26;;;;;;;;;;;;;;;17.46;53.50;96727.28;30001;983;1868;-68
2022/08/22 01:21:20;;;;;;;;;;;;;;;17.43;54.32;96729.56;30001;983;1881;-68
2022/08/22 01:21:59;;;;;;;;;;;;;;;17.39;54.82;96728.66;30001;983;1850;-67
2022/08/22 01:22:55;;;;;;;;;;;;;;;17.38;54.76;96732.53;30001;986;1877;-68
2022/08/22 01:23:58;;;;;;;;;;;;;;;17.36;54.69;96731.28;30001;982;1877;-68
2022/08/22 01:26:09;;;;;;;;;;;;;;;17.35;53.56;96727.72;30001;983;1872;-56
2022/08/22 01:26:52;;;;;;;;;;;;;;;17.37;53.25;96725.44;30001;983;1854;-66
2022/08/22 01:27:43;;;;;;;;;;;;;;;17.37;53.03;96717.22;30001;983;1872;-67
2022/08/22 01:28:36;;;;;;;;;;;;;;;17.40;52.35;96716.53;30001;967;1800;-66
2022/08/22 01:29:25;;;;;;;;;;;;;;;17.38;52.29;96716.09;30001;982;1850;-67
2022/08/22 01:30:31;;;;;;;;;;;;;;;17.37;52.02;96717.22;30001;982;1846;-66
2022/08/22 01:31:37;;;;;;;;;;;;;;;17.36;51.83;96712.88;30001;982;1850;-67
2022/08/22 01:32:26;;;;;;;;;;;;;;;17.35;51.84;96710.47;30001;982;1872;-66
2022/08/22 01:33:09;;;;;;;;;;;;;;;17.33;52.04;96712.75;30001;983;1867;-67
2022/08/22 01:34:02;;;;;;;;;;;;;;;17.33;52.48;96713.56;30001;983;1880;-56
2022/08/22 01:34:52;;;;;;;;;;;;;;;17.34;52.24;96711.62;30001;983;1850;-56
2022/08/22 01:35:35;;;;;;;;;;;;;;;17.34;52.15;96709.66;30001;983;1868;-66
2022/08/22 01:36:16;;;;;;;;;;;;;;;17.33;52.33;96705.31;30001;983;1876;-67
2022/08/22 01:37:06;;;;;;;;;;;;;;;17.33;52.09;96710.00;30001;982;1881;-66
2022/08/22 01:37:46;;;;;;;;;;;;;;;17.32;51.99;96705.69;30001;982;1877;-67
2022/08/22 01:38:33;;;;;;;;;;;;;;;17.30;54.39;96721.69;30001;982;1881;-68
2022/08/22 01:39:33;;;;;;;;;;;;;;;17.24;53.92;96721.09;30001;982;1855;-66
2022/08/22 01:40:27;;;;;;;;;;;;;;;17.17;55.25;96722.78;30001;983;1872;-67
2022/08/22 01:41:16;;;;;;;;;;;;;;;17.08;55.99;96728.38;30001;983;1850;-67
2022/08/22 01:42:07;;;;;;;;;;;;;;;17.02;55.19;96729.72;30001;983;1845;-67
2022/08/22 01:43:03;;;;;;;;;;;;;;;16.98;54.89;96720.59;30001;983;1872;-67
2022/08/22 01:43:53;;;;;;;;;;;;;;;16.92;54.46;96724.69;30001;983;1881;-66
2022/08/22 01:44:50;;;;;;;;;;;;;;;16.88;55.28;96730.03;30001;982;1855;-67
2022/08/22 01:45:55;;;;;;;;;;;;;;;16.84;55.56;96728.28;30001;982;1877;-56
2022/08/22 01:46:44;;;;;;;;;;;;;;;16.80;55.06;96722.69;30001;982;1877;-66
2022/08/22 01:47:22;;;;;;;;;;;;;;;16.80;55.04;96724.63;30001;982;1872;-68
2022/08/22 01:48:15;;;;;;;;;;;;;;;16.82;54.70;96730.56;30001;983;1854;-69
2022/08/22 01:49:04;;;;;;;;;;;;;;;16.82;54.55;96722.34;30001;983;1876;-66
2022/08/22 01:49:57;;;;;;;;;;;;;;;16.81;54.47;96720.75;30001;983;1868;-68
2022/08/22 01:50:57;;;;;;;;;;;;;;;16.81;54.66;96723.47;30001;983;1859;-66
2022/08/22 01:51:35;;;;;;;;;;;;;;;16.80;54.55;96727.34;30001;983;1868;-67
2022/08/22 01:52:13;;;;;;;;;;;;;;;16.80;54.19;96721.88;30001;982;1881;-67
2022/08/22 01:52:47;;;;;;;;;;;;;;;16.79;54.21;96725.75;30001;982;1877;-56
2022/08/22 01:53:23;;;;;;;;;;;;;;;16.79;53.50;96717.53;30001;982;1881;-67
2022/08/22 01:54:01;;;;;;;;;;;;;;;16.80;53.59;96721.88;30001;982;1877;-67
2022/08/22 01:54:54;;;;;;;;;;;;;;;16.80;53.05;96716.41;30001;982;1881;-67
2022/08/22 01:55:31;;;;;;;;;;;;;;;16.77;53.20;96715.13;30001;983;1872;-67
2022/08/22 01:56:08;;;;;;;;;;;;;;;16.77;52.79;96717.06;30001;983;1859;-68
2022/08/22 01:56:42;;;;;;;;;;;;;;;16.77;53.08;96717.06;30001;983;1872;-65
2022/08/22 01:57:13;;;;;;;;;;;;;;;16.76;53.03;96721.75;30001;983;1881;-68
2022/08/22 01:57:55;;;;;;;;;;;;;;;16.77;53.26;96719.81;30001;983;1876;-66
2022/08/22 01:58:28;;;;;;;;;;;;;;;16.77;53.01;96717.88;30001;983;1881;-66
2022/08/22 01:59:10;;;;;;;;;;;;;;;16.79;53.27;96723.03;30001;983;1877;-67
2022/08/22 01:59:43;;;;;;;;;;;;;;;16.79;52.93;96715.59;30001;982;1881;-67
2022/08/22 02:00:17;;;;;;;;;;;;;;;16.79;52.68;96715.59;30001;982;1877;-57
2022/08/22 02:01:08;;;;;;;;;;;;;;;16.80;52.52;96719.12;30001;982;1881;-66
2022/08/22 02:01:52;;;;;;;;;;;;;;;16.81;52.58;96716.06;30001;982;1851;-65
2022/08/22 02:02:50;;;;;;;;;;;;;;;16.82;52.27;96711.38;30001;983;1814;-56
2022/08/22 02:03:28;;;;;;;;;;;;;;;16.82;52.26;96714.13;30001;983;1876;-67
2022/08/22 02:04:19;;;;;;;;;;;;;;;16.83;52.25;96711.06;30001;983;1881;-68
2022/08/22 02:04:58;;;;;;;;;;;;;;;16.83;52.36;96710.25;30001;983;1872;-67
2022/08/22 02:05:35;;;;;;;;;;;;;;;16.83;52.34;96707.50;30001;983;1881;-66
2022/08/22 02:06:13;;;;;;;;;;;;;;;16.83;52.54;96711.06;30001;983;1855;-70
2022/08/22 02:06:58;;;;;;;;;;;;;;;16.83;52.48;96716.53;30001;982;1876;-68
2022/08/22 02:07:34;;;;;;;;;;;;;;;16.83;52.68;96713.78;30001;982;1877;-66
2022/08/22 02:08:23;;;;;;;;;;;;;;;16.81;52.44;96720.75;30001;982;1881;-67
2022/08/22 02:09:22;;;;;;;;;;;;;;;16.81;52.46;96712.53;30001;982;1868;-67
2022/08/22 02:10:07;;;;;;;;;;;;;;;16.80;52.38;96713.66;30001;983;1876;-65
2022/08/22 02:11:02;;;;;;;;;;;;;;;16.80;52.64;96708.19;30001;983;1854;-67
2022/08/22 02:11:39;;;;;;;;;;;;;;;16.80;52.19;96716.41;30001;983;1871;-67
2022/08/22 02:12:30;;;;;;;;;;;;;;;16.80;52.08;96710.91;30001;983;1876;-56
2022/08/22 02:13:20;;;;;;;;;;;;;;;16.80;52.05;96705.44;30001;983;1854;-67
2022/08/22 02:13:55;;;;;;;;;;;;;;;16.81;52.01;96707.03;30001;983;1867;-66
2022/08/22 02:14:39;;;;;;;;;;;;;;;16.81;51.99;96696.09;30001;982;1881;-69
2022/08/22 02:15:41;;;;;;;;;;;;;;;16.83;52.03;96704.75;30001;982;1876;-68
2022/08/22 02:16:31;;;;;;;;;;;;;;;16.83;51.57;96697.34;30001;982;1876;-56
2022/08/22 02:17:27;;;;;;;;;;;;;;;16.85;51.82;96702.50;30001;983;1867;-69
2022/08/22 02:18:24;;;;;;;;;;;;;;;16.86;51.56;96710.38;30001;983;1876;-67
2022/08/22 02:19:09;;;;;;;;;;;;;;;16.87;51.69;96698.28;30001;983;1849;-68
2022/08/22 02:19:46;;;;;;;;;;;;;;;16.87;51.72;96711.19;30001;983;1876;-57
2022/08/22 02:20:24;;;;;;;;;;;;;;;16.85;53.98;96724.41;30001;983;1876;-68
2022/08/22 02:21:05;;;;;;;;;;;;;;;16.79;53.41;96723.03;30001;983;1880;-65
2022/08/22 02:21:49;;;;;;;;;;;;;;;16.75;53.59;96720.16;30001;983;1854;-68
2022/08/22 02:22:49;;;;;;;;;;;;;;;16.71;53.62;96713.72;30001;982;1854;-68
2022/08/22 02:23:24;;;;;;;;;;;;;;;16.69;53.71;96719.53;30001;982;1850;-68
2022/08/22 02:23:57;;;;;;;;;;;;;;;16.67;54.61;96716.34;30001;982;1855;-69
2022/08/22 02:24:57;;;;;;;;;;;;;;;16.64;54.52;96719.75;30001;983;1876;-69
2022/08/22 02:25:32;;;;;;;;;;;;;;;16.56;54.75;96726.09;30001;983;1876;-69
2022/08/22 02:26:08;;;;;;;;;;;;;;;16.53;54.67;96726.75;30001;983;1876;-68
2022/08/22 02:26:44;;;;;;;;;;;;;;;16.52;54.32;96716.94;30001;983;1880;-67
2022/08/22 02:27:24;;;;;;;;;;;;;;;16.52;54.72;96721.63;30001;983;1876;-68
2022/08/22 02:28:04;;;;;;;;;;;;;;;16.50;54.15;96723.91;30001;983;1859;-67
2022/08/22 02:28:52;;;;;;;;;;;;;;;16.51;54.56;96729.03;30001;982;1872;-69
2022/08/22 02:29:30;;;;;;;;;;;;;;;16.50;54.05;96724.69;30001;982;1881;-67
2022/08/22 02:30:13;;;;;;;;;;;;;;;16.50;54.43;96721.94;30001;982;1876;-70
2022/08/22 02:31:13;;;;;;;;;;;;;;;16.51;54.03;96723.56;30001;982;1881;-67
2022/08/22 02:31:48;;;;;;;;;;;;;;;16.49;55.27;96730.50;30001;982;1872;-67
2022/08/22 02:32:30;;;;;;;;;;;;;;;16.42;54.97;96722.81;30001;983;1880;-68
2022/08/22 02:33:07;;;;;;;;;;;;;;;16.35;55.29;96728.03;30001;983;1854;-68
2022/08/22 02:33:48;;;;;;;;;;;;;;;16.33;54.94;96719.34;30001;983;1876;-66
2022/08/22 02:34:37;;;;;;;;;;;;;;;16.32;54.98;96723.22;30001;983;1854;-68
2022/08/22 02:35:43;;;;;;;;;;;;;;;16.28;55.11;96723.09;30001;983;1867;-70
2022/08/22 02:36:20;;;;;;;;;;;;;;;16.26;55.18;96721.84;30001;982;1872;-66
2022/08/22 02:37:01;;;;;;;;;;;;;;;16.25;55.13;96717.50;30001;982;1881;-66
2022/08/22 02:37:58;;;;;;;;;;;;;;;16.27;55.35;96723.44;30001;982;1876;-68
2022/08/22 02:38:35;;;;;;;;;;;;;;;16.28;54.98;96716.81;30001;982;1854;-66
2022/08/22 02:39:12;;;;;;;;;;;;;;;16.28;55.11;96716.81;30001;982;1850;-68
2022/08/22 02:39:48;;;;;;;;;;;;;;;16.27;54.94;96720.69;30001;983;1880;-68
2022/08/22 02:40:37;;;;;;;;;;;;;;;16.27;54.99;96724.25;30001;983;1854;-66
2022/08/22 02:41:14;;;;;;;;;;;;;;;16.27;54.67;96717.97;30001;983;1867;-67
2022/08/22 02:41:55;;;;;;;;;;;;;;;16.26;54.62;96710.88;30001;983;1876;-57
2022/08/22 02:42:41;;;;;;;;;;;;;;;16.26;54.85;96714.41;30001;983;1881;-67
2022/08/22 02:43:21;;;;;;;;;;;;;;;16.27;54.46;96717.97;30001;983;1854;-68
2022/08/22 02:44:17;;;;;;;;;;;;;;;16.28;54.51;96712.16;30001;982;1876;-67
2022/08/22 02:45:07;;;;;;;;;;;;;;;16.28;54.47;96711.34;30001;970;1896;-66
2022/08/22 02:45:45;;;;;;;;;;;;;;;16.28;54.59;96711.34;30001;982;1817;-66
2022/08/22 02:46:21;;;;;;;;;;;;;;;16.28;54.76;96711.34;30001;982;1877;-67
2022/08/22 02:46:57;;;;;;;;;;;;;;;16.29;54.45;96710.19;30001;982;1881;-68
2022/08/22 02:47:42;;;;;;;;;;;;;;;16.29;54.67;96712.91;30001;983;1876;-68
2022/08/22 02:48:51;;;;;;;;;;;;;;;16.28;54.65;96712.16;30001;983;1858;-56
2022/08/22 02:49:27;;;;;;;;;;;;;;;16.28;54.74;96701.19;30001;983;1867;-67
2022/08/22 02:50:16;;;;;;;;;;;;;;;16.28;54.55;96700.41;30001;983;1880;-67
2022/08/22 02:50:56;;;;;;;;;;;;;;;16.30;54.49;96714.53;30001;983;1876;-67
2022/08/22 02:51:46;;;;;;;;;;;;;;;16.29;54.69;96702.78;30001;982;1881;-57
2022/08/22 02:52:24;;;;;;;;;;;;;;;16.29;54.84;96701.97;30001;982;1876;-68
2022/08/22 02:53:07;;;;;;;;;;;;;;;16.29;54.68;96702.78;30001;982;1881;-69
2022/08/22 02:53:58;;;;;;;;;;;;;;;16.30;55.25;96709.06;30001;982;1854;-69
2022/08/22 02:54:34;;;;;;;;;;;;;;;16.27;55.00;96699.59;30001;983;1871;-69
2022/08/22 02:55:11;;;;;;;;;;;;;;;16.25;55.18;96706.53;30001;983;1876;-68
2022/08/22 02:55:59;;;;;;;;;;;;;;;16.23;55.26;96703.34;30001;983;1880;-68
2022/08/22 02:56:36;;;;;;;;;;;;;;;16.24;55.20;96704.94;30001;983;1876;-68
2022/08/22 02:57:13;;;;;;;;;;;;;;;16.24;55.28;96702.19;30001;983;1858;-68
2022/08/22 02:57:51;;;;;;;;;;;;;;;16.24;55.22;96710.41;30001;983;1872;-68
2022/08/22 02:58:29;;;;;;;;;;;;;;;16.23;54.86;96697.84;30001;983;1880;-67
2022/08/22 02:59:32;;;;;;;;;;;;;;;16.23;55.09;96703.34;30001;982;1854;-68
2022/08/22 03:00:24;;;;;;;;;;;;;;;16.22;55.32;96699.00;30001;964;1798;-57
2022/08/22 03:01:21;;;;;;;;;;;;;;;16.21;55.41;96697.38;30001;982;1872;-66
2022/08/22 03:01:54;;;;;;;;;;;;;;;16.20;55.23;96695.78;30001;983;1875;-56
2022/08/22 03:02:34;;;;;;;;;;;;;;;16.20;55.00;96695.78;30001;983;1854;-69
2022/08/22 03:03:18;;;;;;;;;;;;;;;16.18;55.14;96690.66;30001;983;1876;-68
2022/08/22 03:03:50;;;;;;;;;;;;;;;16.18;55.08;96700.78;30001;983;1876;-68
2022/08/22 03:04:44;;;;;;;;;;;;;;;16.18;55.10;96703.53;30001;983;1880;-67
2022/08/22 03:05:22;;;;;;;;;;;;;;;16.19;55.25;96705.12;30001;983;1850;-67
2022/08/22 03:06:04;;;;;;;;;;;;;;;16.17;55.17;96699.19;30001;983;1876;-67
2022/08/22 03:06:41;;;;;;;;;;;;;;;16.16;55.21;96698.38;30001;982;1876;-67
2022/08/22 03:07:32;;;;;;;;;;;;;;;16.14;55.42;96700.66;30001;982;1881;-67
2022/08/22 03:08:16;;;;;;;;;;;;;;;16.14;55.59;96702.59;30001;982;1872;-68
2022/08/22 03:09:04;;;;;;;;;;;;;;;16.11;55.36;96700.50;30001;982;1881;-66
2022/08/22 03:09:42;;;;;;;;;;;;;;;16.11;55.14;96701.31;30001;983;1854;-67
2022/08/22 03:10:19;;;;;;;;;;;;;;;16.09;55.25;96704.38;30001;983;1876;-65
2022/08/22 03:11:13;;;;;;;;;;;;;;;16.09;55.60;96698.91;30001;983;1876;-65
2022/08/22 03:12:13;;;;;;;;;;;;;;;16.11;55.33;96697.78;30001;983;1876;-67
2022/08/22 03:13:09;;;;;;;;;;;;;;;16.14;55.21;96697.12;30001;987;1876;-68
2022/08/22 03:14:12;;;;;;;;;;;;;;;16.15;55.19;96695.97;30001;983;1877;-67
2022/08/22 03:14:59;;;;;;;;;;;;;;;16.15;55.00;96698.72;30001;982;1850;-67
2022/08/22 03:15:48;;;;;;;;;;;;;;;16.16;55.55;96703.06;30001;982;1877;-69
2022/08/22 03:16:32;;;;;;;;;;;;;;;16.15;55.79;96696.78;30001;982;1877;-66
2022/08/22 03:17:09;;;;;;;;;;;;;;;16.14;56.35;96699.84;30001;983;1880;-66
2022/08/22 03:18:00;;;;;;;;;;;;;;;16.12;56.16;96704.84;30001;983;1876;-66
2022/08/22 03:18:51;;;;;;;;;;;;;;;16.11;56.49;96700.50;30001;983;1854;-68
2022/08/22 03:19:27;;;;;;;;;;;;;;;16.08;56.84;96702.78;30001;983;1867;-66
2022/08/22 03:20:09;;;;;;;;;;;;;;;16.04;57.83;96706.50;30001;983;1881;-56
2022/08/22 03:21:05;;;;;;;;;;;;;;;16.00;57.59;96709.09;30001;983;1855;-66
2022/08/22 03:21:42;;;;;;;;;;;;;;;15.98;56.84;96696.88;30001;982;1872;-67
2022/08/22 03:22:21;;;;;;;;;;;;;;;15.97;57.60;96704.28;30001;982;1877;-66
2022/08/22 03:23:08;;;;;;;;;;;;;;;15.95;57.27;96701.09;30001;982;1881;-69
2022/08/22 03:23:53;;;;;;;;;;;;;;;15.94;57.18;96704.97;30001;982;1877;-67
2022/08/22 03:24:28;;;;;;;;;;;;;;;15.89;57.45;96699.69;30001;983;1859;-56
2022/08/22 03:25:22;;;;;;;;;;;;;;;15.88;57.55;96698.09;30001;983;1872;-66
2022/08/22 03:26:18;;;;;;;;;;;;;;;15.86;57.62;96694.09;30001;983;1876;-68
2022/08/22 03:27:00;;;;;;;;;;;;;;;15.82;57.45;96699.41;30001;983;1872;-68
2022/08/22 03:28:03;;;;;;;;;;;;;;;15.74;58.40;96692.84;30001;983;1814;-68
2022/08/22 03:28:40;;;;;;;;;;;;;;;15.68;58.15;96693.37;30001;982;1872;-68
2022/08/22 03:29:15;;;;;;;;;;;;;;;15.70;57.53;96696.56;30001;982;1859;-67
2022/08/22 03:29:53;;;;;;;;;;;;;;;15.73;57.62;96695.91;30001;982;1872;-67
2022/08/22 03:30:32;;;;;;;;;;;;;;;15.74;57.23;96697.53;30001;982;1881;-66
2022/08/22 03:31:16;;;;;;;;;;;;;;;15.75;57.71;96699.13;30001;982;1877;-56
2022/08/22 03:32:25;;;;;;;;;;;;;;;15.75;57.64;96699.13;30001;983;1880;-56
2022/08/22 03:33:11;;;;;;;;;;;;;;;15.76;57.42;96695.25;30001;983;1871;-65
2022/08/22 03:33:42;;;;;;;;;;;;;;;15.78;57.49;96698.47;30001;983;1881;-67
2022/08/22 03:34:25;;;;;;;;;;;;;;;15.81;57.29;96702.47;30001;983;1855;-66
2022/08/22 03:35:02;;;;;;;;;;;;;;;15.82;57.35;96699.41;30001;983;1876;-66
2022/08/22 03:36:05;;;;;;;;;;;;;;;15.84;57.02;96702.63;30001;983;1876;-67
2022/08/22 03:36:36;;;;;;;;;;;;;;;15.84;56.83;96697.16;30001;982;1876;-67
2022/08/22 03:37:24;;;;;;;;;;;;;;;15.83;57.27;96698.28;30001;982;1855;-66
2022/08/22 03:38:07;;;;;;;;;;;;;;;15.82;57.46;96695.88;30001;982;1877;-66
2022/08/22 03:39:01;;;;;;;;;;;;;;;15.82;57.44;96696.69;30001;982;1877;-56
2022/08/22 03:39:56;;;;;;;;;;;;;;;15.82;56.99;96696.69;30001;983;1876;-66
2022/08/22 03:40:37;;;;;;;;;;;;;;;15.83;57.12;96700.22;30001;983;1854;-66
2022/08/22 03:41:34;;;;;;;;;;;;;;;15.82;56.93;96704.88;30001;983;1876;-56
2022/08/22 03:42:18;;;;;;;;;;;;;;;15.82;57.28;96699.41;30001;983;1872;-66
2022/08/22 03:43:12;;;;;;;;;;;;;;;15.81;57.15;96692.34;30001;983;1859;-67
2022/08/22 03:44:03;;;;;;;;;;;;;;;15.82;57.19;96699.41;30001;982;1850;-67
2022/08/22 03:45:12;;;;;;;;;;;;;;;15.82;57.02;96698.63;30001;982;1872;-67
2022/08/22 03:46:09;;;;;;;;;;;;;;;15.82;57.15;96693.16;30001;965;1801;-66
2022/08/22 03:46:58;;;;;;;;;;;;;;;15.82;56.84;96691.22;30001;983;1876;-67
2022/08/22 03:47:36;;;;;;;;;;;;;;;15.83;56.88;96684.59;30001;983;1867;-69
2022/08/22 03:48:26;;;;;;;;;;;;;;;15.82;56.93;96693.94;30001;983;1881;-66
2022/08/22 03:49:32;;;;;;;;;;;;;;;15.81;56.70;96686.88;30001;969;1868;-66
2022/08/22 03:50:28;;;;;;;;;;;;;;;15.80;56.84;96689.94;30001;983;1872;-69
2022/08/22 03:51:11;;;;;;;;;;;;;;;15.75;58.54;96699.94;30001;982;1872;-66
2022/08/22 03:52:05;;;;;;;;;;;;;;;15.70;58.69;96696.56;30001;982;1881;-70
2022/08/22 03:53:09;;;;;;;;;;;;;;;15.66;58.50;96699.16;30001;982;1872;-69
2022/08/22 03:53:58;;;;;;;;;;;;;;;15.63;58.91;96696.28;30001;982;1881;-68
2022/08/22 03:54:51;;;;;;;;;;;;;;;15.58;59.42;96699.25;30001;983;1845;-68
2022/08/22 03:55:51;;;;;;;;;;;;;;;15.57;58.99;96700.37;30001;983;1872;-68
2022/08/22 03:56:36;;;;;;;;;;;;;;;15.57;58.70;96700.37;30001;983;1854;-67
2022/08/22 03:57:27;;;;;;;;;;;;;;;15.58;58.96;96700.03;30001;983;1837;-68
2022/08/22 03:58:16;;;;;;;;;;;;;;;15.56;58.98;96698.72;30001;983;1872;-67
2022/08/22 03:59:05;;;;;;;;;;;;;;;15.54;59.18;96699.06;30001;982;1872;-56
2022/08/22 03:59:47;;;;;;;;;;;;;;;15.52;59.37;96706.00;30001;982;1850;-66
2022/08/22 04:00:26;;;;;;;;;;;;;;;15.51;59.66;96698.91;30001;982;1877;-68
2022/08/22 04:01:12;;;;;;;;;;;;;;;15.50;59.61;96708.25;30001;983;1876;-56
2022/08/22 04:02:02;;;;;;;;;;;;;;;15.49;59.43;96706.63;30001;983;1880;-66
2022/08/22 04:03:08;;;;;;;;;;;;;;;15.50;60.10;96705.50;30001;983;1867;-66
2022/08/22 04:04:02;;;;;;;;;;;;;;;15.51;59.96;96710.66;30001;983;1876;-67
2022/08/22 04:04:50;;;;;;;;;;;;;;;15.53;59.80;96710.31;30001;983;1872;-65
2022/08/22 04:05:45;;;;;;;;;;;;;;;15.53;59.94;96710.31;30001;983;1859;-55
2022/08/22 04:06:34;;;;;;;;;;;;;;;15.53;60.20;96719.34;30001;982;1868;-68
2022/08/22 04:07:23;;;;;;;;;;;;;;;15.51;60.37;96710.66;30001;982;1872;-67
2022/08/22 04:08:20;;;;;;;;;;;;;;;15.49;61.04;96717.56;30001;982;1838;-66
2022/08/22 04:09:04;;;;;;;;;;;;;;;15.44;61.20;96715.81;30001;983;1876;-67
2022/08/22 04:10:01;;;;;;;;;;;;;;;15.41;60.87;96716.47;30001;983;1876;-68